sensor_id;sensor_type;location;lat;lon;timestamp;P1;durP1;ratioP1;P2;durP2;ratioP2
4202;SDS011;2115;51.038;7.006;2022-11-20T00:00:24;32.50;;;10.00;;
4202;SDS011;2115;51.038;7.006;2022-11-20T00:02:50;15.20;;;8.67;;
4202;SDS011;2115;51.038;7.006;2022-11-20T00:05:15;20.40;;;9.07;;
4202;SDS011;2115;51.038;7.006;2022-11-20T00:07:41;68.23;;;13.53;;
4202;SDS011;2115;51.038;7.006;2022-11-20T00:10:06;21.80;;;8.67;;
4202;SDS011;2115;51.038;7.006;2022-11-20T00:12:32;22.77;;;10.37;;
4202;SDS011;2115;51.038;7.006;2022-11-20T00:14:57;21.63;;;9.27;;
4202;SDS011;2115;51.038;7.006;2022-11-20T00:17:22;25.47;;;8.17;;
4202;SDS011;2115;51.038;7.006;2022-11-20T00:19:48;36.70;;;10.50;;
4202;SDS011;2115;51.038;7.006;2022-11-20T00:22:13;31.80;;;10.23;;
4202;SDS011;2115;51.038;7.006;2022-11-20T00:24:39;29.57;;;9.60;;
4202;SDS011;2115;51.038;7.006;2022-11-20T00:27:04;26.60;;;10.33;;
4202;SDS011;2115;51.038;7.006;2022-11-20T00:29:29;23.10;;;9.73;;
4202;SDS011;2115;51.038;7.006;2022-11-20T00:31:55;32.57;;;9.60;;
4202;SDS011;2115;51.038;7.006;2022-11-20T00:34:20;28.57;;;10.43;;
4202;SDS011;2115;51.038;7.006;2022-11-20T00:36:45;49.03;;;11.77;;
4202;SDS011;2115;51.038;7.006;2022-11-20T00:39:11;44.70;;;11.13;;
4202;SDS011;2115;51.038;7.006;2022-11-20T00:41:36;20.77;;;7.97;;
4202;SDS011;2115;51.038;7.006;2022-11-20T00:44:01;23.00;;;8.73;;
4202;SDS011;2115;51.038;7.006;2022-11-20T00:46:27;19.50;;;8.93;;
4202;SDS011;2115;51.038;7.006;2022-11-20T00:48:53;29.10;;;9.17;;
4202;SDS011;2115;51.038;7.006;2022-11-20T00:51:19;32.63;;;9.67;;
4202;SDS011;2115;51.038;7.006;2022-11-20T00:53:46;25.67;;;8.90;;
4202;SDS011;2115;51.038;7.006;2022-11-20T00:56:12;14.93;;;8.30;;
4202;SDS011;2115;51.038;7.006;2022-11-20T00:58:40;25.03;;;9.53;;
4202;SDS011;2115;51.038;7.006;2022-11-20T01:01:07;23.23;;;8.87;;
4202;SDS011;2115;51.038;7.006;2022-11-20T01:03:35;21.83;;;8.20;;
4202;SDS011;2115;51.038;7.006;2022-11-20T01:06:02;30.33;;;8.63;;
4202;SDS011;2115;51.038;7.006;2022-11-20T01:08:29;22.53;;;7.57;;
4202;SDS011;2115;51.038;7.006;2022-11-20T01:11:00;43.53;;;10.90;;
4202;SDS011;2115;51.038;7.006;2022-11-20T01:13:30;21.67;;;8.17;;
4202;SDS011;2115;51.038;7.006;2022-11-20T01:16:06;61.43;;;12.33;;
4202;SDS011;2115;51.038;7.006;2022-11-20T01:18:31;19.90;;;8.57;;
4202;SDS011;2115;51.038;7.006;2022-11-20T01:21:01;19.57;;;8.77;;
4202;SDS011;2115;51.038;7.006;2022-11-20T01:23:36;20.20;;;8.40;;
4202;SDS011;2115;51.038;7.006;2022-11-20T01:26:04;29.60;;;8.90;;
4202;SDS011;2115;51.038;7.006;2022-11-20T01:28:30;22.37;;;7.90;;
4202;SDS011;2115;51.038;7.006;2022-11-20T01:30:56;22.23;;;9.27;;
4202;SDS011;2115;51.038;7.006;2022-11-20T01:33:22;34.53;;;10.30;;
4202;SDS011;2115;51.038;7.006;2022-11-20T01:35:47;26.07;;;9.33;;
4202;SDS011;2115;51.038;7.006;2022-11-20T01:38:14;23.27;;;9.60;;
4202;SDS011;2115;51.038;7.006;2022-11-20T01:40:40;16.93;;;8.60;;
4202;SDS011;2115;51.038;7.006;2022-11-20T01:43:18;27.43;;;9.10;;
4202;SDS011;2115;51.038;7.006;2022-11-20T01:45:56;26.43;;;8.60;;
4202;SDS011;2115;51.038;7.006;2022-11-20T01:48:25;34.60;;;9.43;;
4202;SDS011;2115;51.038;7.006;2022-11-20T01:50:53;25.20;;;9.43;;
4202;SDS011;2115;51.038;7.006;2022-11-20T01:53:20;29.40;;;10.23;;
4202;SDS011;2115;51.038;7.006;2022-11-20T01:55:54;25.07;;;9.73;;
4202;SDS011;2115;51.038;7.006;2022-11-20T01:58:21;24.80;;;9.37;;
4202;SDS011;2115;51.038;7.006;2022-11-20T02:00:49;33.33;;;10.90;;
4202;SDS011;2115;51.038;7.006;2022-11-20T02:03:15;54.47;;;10.83;;
4202;SDS011;2115;51.038;7.006;2022-11-20T02:06:01;24.37;;;9.20;;
4202;SDS011;2115;51.038;7.006;2022-11-20T02:08:28;26.50;;;8.50;;
4202;SDS011;2115;51.038;7.006;2022-11-20T02:10:53;21.23;;;8.90;;
4202;SDS011;2115;51.038;7.006;2022-11-20T02:13:22;19.27;;;7.90;;
4202;SDS011;2115;51.038;7.006;2022-11-20T02:16:08;22.03;;;8.70;;
4202;SDS011;2115;51.038;7.006;2022-11-20T02:18:35;26.30;;;9.83;;
4202;SDS011;2115;51.038;7.006;2022-11-20T02:21:02;19.63;;;8.43;;
4202;SDS011;2115;51.038;7.006;2022-11-20T02:23:39;22.83;;;9.53;;
4202;SDS011;2115;51.038;7.006;2022-11-20T02:26:15;26.20;;;9.20;;
4202;SDS011;2115;51.038;7.006;2022-11-20T02:28:41;18.27;;;8.00;;
4202;SDS011;2115;51.038;7.006;2022-11-20T02:31:06;13.90;;;6.90;;
4202;SDS011;2115;51.038;7.006;2022-11-20T02:33:32;30.27;;;8.97;;
4202;SDS011;2115;51.038;7.006;2022-11-20T02:35:57;21.67;;;7.90;;
4202;SDS011;2115;51.038;7.006;2022-11-20T02:38:23;31.43;;;8.23;;
4202;SDS011;2115;51.038;7.006;2022-11-20T02:40:48;63.50;;;12.70;;
4202;SDS011;2115;51.038;7.006;2022-11-20T02:43:15;26.00;;;8.60;;
4202;SDS011;2115;51.038;7.006;2022-11-20T02:45:40;25.63;;;8.50;;
4202;SDS011;2115;51.038;7.006;2022-11-20T02:48:06;34.33;;;10.23;;
4202;SDS011;2115;51.038;7.006;2022-11-20T02:50:32;44.63;;;10.73;;
4202;SDS011;2115;51.038;7.006;2022-11-20T02:52:58;28.33;;;9.30;;
4202;SDS011;2115;51.038;7.006;2022-11-20T02:55:23;60.97;;;13.00;;
4202;SDS011;2115;51.038;7.006;2022-11-20T02:57:48;31.80;;;9.37;;
4202;SDS011;2115;51.038;7.006;2022-11-20T03:00:14;23.50;;;8.13;;
4202;SDS011;2115;51.038;7.006;2022-11-20T03:02:39;29.10;;;9.20;;
4202;SDS011;2115;51.038;7.006;2022-11-20T03:05:04;19.83;;;7.87;;
4202;SDS011;2115;51.038;7.006;2022-11-20T03:07:30;40.80;;;10.20;;
4202;SDS011;2115;51.038;7.006;2022-11-20T03:09:55;31.63;;;10.13;;
4202;SDS011;2115;51.038;7.006;2022-11-20T03:12:21;25.50;;;9.00;;
4202;SDS011;2115;51.038;7.006;2022-11-20T03:14:46;27.33;;;9.00;;
4202;SDS011;2115;51.038;7.006;2022-11-20T03:17:11;18.90;;;7.90;;
4202;SDS011;2115;51.038;7.006;2022-11-20T03:19:37;35.33;;;10.47;;
4202;SDS011;2115;51.038;7.006;2022-11-20T03:22:02;26.37;;;8.17;;
4202;SDS011;2115;51.038;7.006;2022-11-20T03:24:28;26.73;;;9.83;;
4202;SDS011;2115;51.038;7.006;2022-11-20T03:26:53;25.90;;;9.50;;
4202;SDS011;2115;51.038;7.006;2022-11-20T03:29:18;20.27;;;8.50;;
4202;SDS011;2115;51.038;7.006;2022-11-20T03:31:43;42.37;;;10.37;;
4202;SDS011;2115;51.038;7.006;2022-11-20T03:34:09;37.13;;;10.77;;
4202;SDS011;2115;51.038;7.006;2022-11-20T03:36:39;36.93;;;10.10;;
4202;SDS011;2115;51.038;7.006;2022-11-20T03:39:07;25.37;;;9.03;;
4202;SDS011;2115;51.038;7.006;2022-11-20T03:41:35;47.90;;;11.47;;
4202;SDS011;2115;51.038;7.006;2022-11-20T03:44:03;23.83;;;7.43;;
4202;SDS011;2115;51.038;7.006;2022-11-20T03:46:30;41.77;;;9.93;;
4202;SDS011;2115;51.038;7.006;2022-11-20T03:48:55;38.20;;;10.20;;
4202;SDS011;2115;51.038;7.006;2022-11-20T03:51:22;23.10;;;9.17;;
4202;SDS011;2115;51.038;7.006;2022-11-20T03:53:52;39.57;;;10.17;;
4202;SDS011;2115;51.038;7.006;2022-11-20T03:56:21;19.57;;;8.53;;
4202;SDS011;2115;51.038;7.006;2022-11-20T03:58:48;40.93;;;11.83;;
4202;SDS011;2115;51.038;7.006;2022-11-20T04:01:15;37.27;;;10.20;;
4202;SDS011;2115;51.038;7.006;2022-11-20T04:03:45;30.53;;;9.23;;
4202;SDS011;2115;51.038;7.006;2022-11-20T04:06:12;22.20;;;8.37;;
4202;SDS011;2115;51.038;7.006;2022-11-20T04:08:42;44.53;;;10.63;;
4202;SDS011;2115;51.038;7.006;2022-11-20T04:13:36;37.73;;;11.13;;
4202;SDS011;2115;51.038;7.006;2022-11-20T04:16:02;35.23;;;10.57;;
4202;SDS011;2115;51.038;7.006;2022-11-20T04:18:28;38.23;;;9.97;;
4202;SDS011;2115;51.038;7.006;2022-11-20T04:20:53;19.03;;;8.20;;
4202;SDS011;2115;51.038;7.006;2022-11-20T04:23:21;20.80;;;8.80;;
4202;SDS011;2115;51.038;7.006;2022-11-20T04:25:47;25.10;;;9.10;;
4202;SDS011;2115;51.038;7.006;2022-11-20T04:28:12;41.33;;;10.03;;
4202;SDS011;2115;51.038;7.006;2022-11-20T04:30:37;41.40;;;11.63;;
4202;SDS011;2115;51.038;7.006;2022-11-20T04:33:03;36.83;;;10.40;;
4202;SDS011;2115;51.038;7.006;2022-11-20T04:35:28;26.60;;;10.13;;
4202;SDS011;2115;51.038;7.006;2022-11-20T04:37:53;23.50;;;8.30;;
4202;SDS011;2115;51.038;7.006;2022-11-20T04:40:19;26.43;;;9.17;;
4202;SDS011;2115;51.038;7.006;2022-11-20T04:42:44;42.33;;;10.50;;
4202;SDS011;2115;51.038;7.006;2022-11-20T04:45:09;41.50;;;10.50;;
4202;SDS011;2115;51.038;7.006;2022-11-20T04:50:03;23.57;;;9.53;;
4202;SDS011;2115;51.038;7.006;2022-11-20T04:52:29;18.07;;;7.53;;
4202;SDS011;2115;51.038;7.006;2022-11-20T04:54:54;24.50;;;9.23;;
4202;SDS011;2115;51.038;7.006;2022-11-20T04:57:20;17.53;;;8.13;;
4202;SDS011;2115;51.038;7.006;2022-11-20T04:59:45;35.50;;;9.33;;
4202;SDS011;2115;51.038;7.006;2022-11-20T05:02:11;30.87;;;10.00;;
4202;SDS011;2115;51.038;7.006;2022-11-20T05:04:36;18.70;;;8.40;;
4202;SDS011;2115;51.038;7.006;2022-11-20T05:07:02;31.73;;;9.73;;
4202;SDS011;2115;51.038;7.006;2022-11-20T05:09:27;20.83;;;7.83;;
4202;SDS011;2115;51.038;7.006;2022-11-20T05:11:52;27.10;;;9.30;;
4202;SDS011;2115;51.038;7.006;2022-11-20T05:14:18;31.77;;;9.77;;
4202;SDS011;2115;51.038;7.006;2022-11-20T05:16:43;39.27;;;10.23;;
4202;SDS011;2115;51.038;7.006;2022-11-20T05:19:09;21.63;;;8.60;;
4202;SDS011;2115;51.038;7.006;2022-11-20T05:21:34;17.40;;;8.30;;
4202;SDS011;2115;51.038;7.006;2022-11-20T05:23:59;30.03;;;9.87;;
4202;SDS011;2115;51.038;7.006;2022-11-20T05:26:25;28.07;;;9.23;;
4202;SDS011;2115;51.038;7.006;2022-11-20T05:28:50;42.27;;;9.90;;
4202;SDS011;2115;51.038;7.006;2022-11-20T05:31:17;20.93;;;8.77;;
4202;SDS011;2115;51.038;7.006;2022-11-20T05:33:43;16.70;;;7.27;;
4202;SDS011;2115;51.038;7.006;2022-11-20T05:36:10;32.83;;;10.57;;
4202;SDS011;2115;51.038;7.006;2022-11-20T05:38:37;20.47;;;9.00;;
4202;SDS011;2115;51.038;7.006;2022-11-20T05:41:06;25.83;;;9.63;;
4202;SDS011;2115;51.038;7.006;2022-11-20T05:43:33;43.20;;;10.73;;
4202;SDS011;2115;51.038;7.006;2022-11-20T05:45:59;23.77;;;9.43;;
4202;SDS011;2115;51.038;7.006;2022-11-20T05:48:25;51.00;;;12.53;;
4202;SDS011;2115;51.038;7.006;2022-11-20T05:50:50;20.87;;;9.27;;
4202;SDS011;2115;51.038;7.006;2022-11-20T05:53:16;29.17;;;10.77;;
4202;SDS011;2115;51.038;7.006;2022-11-20T05:55:41;25.63;;;9.43;;
4202;SDS011;2115;51.038;7.006;2022-11-20T05:58:07;27.00;;;11.20;;
4202;SDS011;2115;51.038;7.006;2022-11-20T06:00:32;32.30;;;11.03;;
4202;SDS011;2115;51.038;7.006;2022-11-20T06:02:58;24.60;;;9.03;;
4202;SDS011;2115;51.038;7.006;2022-11-20T06:05:23;19.70;;;8.63;;
4202;SDS011;2115;51.038;7.006;2022-11-20T06:07:48;24.77;;;9.27;;
4202;SDS011;2115;51.038;7.006;2022-11-20T06:10:20;32.73;;;10.27;;
4202;SDS011;2115;51.038;7.006;2022-11-20T06:12:45;23.70;;;9.40;;
4202;SDS011;2115;51.038;7.006;2022-11-20T06:15:10;17.53;;;8.07;;
4202;SDS011;2115;51.038;7.006;2022-11-20T06:17:36;30.80;;;9.10;;
4202;SDS011;2115;51.038;7.006;2022-11-20T06:20:01;32.57;;;10.30;;
4202;SDS011;2115;51.038;7.006;2022-11-20T06:22:27;20.03;;;8.50;;
4202;SDS011;2115;51.038;7.006;2022-11-20T06:24:52;21.50;;;9.70;;
4202;SDS011;2115;51.038;7.006;2022-11-20T06:27:18;16.20;;;7.20;;
4202;SDS011;2115;51.038;7.006;2022-11-20T06:29:43;29.00;;;9.03;;
4202;SDS011;2115;51.038;7.006;2022-11-20T06:32:08;29.00;;;8.97;;
4202;SDS011;2115;51.038;7.006;2022-11-20T06:34:34;28.97;;;9.97;;
4202;SDS011;2115;51.038;7.006;2022-11-20T06:36:59;25.30;;;9.23;;
4202;SDS011;2115;51.038;7.006;2022-11-20T06:39:24;27.20;;;9.40;;
4202;SDS011;2115;51.038;7.006;2022-11-20T06:41:50;41.60;;;11.23;;
4202;SDS011;2115;51.038;7.006;2022-11-20T06:44:15;19.90;;;9.03;;
4202;SDS011;2115;51.038;7.006;2022-11-20T06:46:41;41.37;;;10.73;;
4202;SDS011;2115;51.038;7.006;2022-11-20T06:49:06;38.13;;;10.10;;
4202;SDS011;2115;51.038;7.006;2022-11-20T06:51:31;20.50;;;8.83;;
4202;SDS011;2115;51.038;7.006;2022-11-20T06:53:57;22.70;;;9.13;;
4202;SDS011;2115;51.038;7.006;2022-11-20T06:56:22;32.43;;;10.07;;
4202;SDS011;2115;51.038;7.006;2022-11-20T06:58:47;51.40;;;12.77;;
4202;SDS011;2115;51.038;7.006;2022-11-20T07:01:13;29.47;;;11.70;;
4202;SDS011;2115;51.038;7.006;2022-11-20T07:03:40;39.37;;;11.47;;
4202;SDS011;2115;51.038;7.006;2022-11-20T07:06:06;53.10;;;14.93;;
4202;SDS011;2115;51.038;7.006;2022-11-20T07:08:31;33.57;;;13.20;;
4202;SDS011;2115;51.038;7.006;2022-11-20T07:10:58;43.23;;;13.63;;
4202;SDS011;2115;51.038;7.006;2022-11-20T07:13:25;39.03;;;11.80;;
4202;SDS011;2115;51.038;7.006;2022-11-20T07:15:51;49.17;;;13.07;;
4202;SDS011;2115;51.038;7.006;2022-11-20T07:18:16;28.50;;;11.23;;
4202;SDS011;2115;51.038;7.006;2022-11-20T07:20:41;24.63;;;10.57;;
4202;SDS011;2115;51.038;7.006;2022-11-20T07:23:07;30.20;;;11.93;;
4202;SDS011;2115;51.038;7.006;2022-11-20T07:25:32;25.53;;;11.20;;
4202;SDS011;2115;51.038;7.006;2022-11-20T07:27:58;29.97;;;10.73;;
4202;SDS011;2115;51.038;7.006;2022-11-20T07:30:24;27.50;;;10.83;;
4202;SDS011;2115;51.038;7.006;2022-11-20T07:32:53;24.17;;;10.80;;
4202;SDS011;2115;51.038;7.006;2022-11-20T07:35:20;25.60;;;10.00;;
4202;SDS011;2115;51.038;7.006;2022-11-20T07:37:45;26.40;;;10.80;;
4202;SDS011;2115;51.038;7.006;2022-11-20T07:40:12;39.43;;;12.90;;
4202;SDS011;2115;51.038;7.006;2022-11-20T07:42:38;23.80;;;11.27;;
4202;SDS011;2115;51.038;7.006;2022-11-20T07:45:04;28.50;;;11.70;;
4202;SDS011;2115;51.038;7.006;2022-11-20T07:47:34;26.00;;;10.40;;
4202;SDS011;2115;51.038;7.006;2022-11-20T07:50:00;24.77;;;9.67;;
4202;SDS011;2115;51.038;7.006;2022-11-20T07:52:26;21.97;;;9.80;;
4202;SDS011;2115;51.038;7.006;2022-11-20T07:54:51;32.27;;;11.90;;
4202;SDS011;2115;51.038;7.006;2022-11-20T07:57:16;22.47;;;10.30;;
4202;SDS011;2115;51.038;7.006;2022-11-20T07:59:42;26.63;;;11.27;;
4202;SDS011;2115;51.038;7.006;2022-11-20T08:02:09;35.33;;;11.90;;
4202;SDS011;2115;51.038;7.006;2022-11-20T08:04:36;29.80;;;11.20;;
4202;SDS011;2115;51.038;7.006;2022-11-20T08:07:02;20.67;;;8.80;;
4202;SDS011;2115;51.038;7.006;2022-11-20T08:09:27;27.43;;;10.97;;
4202;SDS011;2115;51.038;7.006;2022-11-20T08:11:53;29.83;;;11.60;;
4202;SDS011;2115;51.038;7.006;2022-11-20T08:14:38;25.57;;;11.30;;
4202;SDS011;2115;51.038;7.006;2022-11-20T08:17:03;29.43;;;11.80;;
4202;SDS011;2115;51.038;7.006;2022-11-20T08:19:28;19.80;;;9.60;;
4202;SDS011;2115;51.038;7.006;2022-11-20T08:21:54;23.37;;;10.90;;
4202;SDS011;2115;51.038;7.006;2022-11-20T08:24:20;30.00;;;11.33;;
4202;SDS011;2115;51.038;7.006;2022-11-20T08:26:45;26.93;;;10.30;;
4202;SDS011;2115;51.038;7.006;2022-11-20T08:29:11;45.20;;;13.97;;
4202;SDS011;2115;51.038;7.006;2022-11-20T08:31:37;25.33;;;11.87;;
4202;SDS011;2115;51.038;7.006;2022-11-20T08:34:02;27.90;;;10.70;;
4202;SDS011;2115;51.038;7.006;2022-11-20T08:36:28;37.43;;;13.10;;
4202;SDS011;2115;51.038;7.006;2022-11-20T08:38:54;26.60;;;10.77;;
4202;SDS011;2115;51.038;7.006;2022-11-20T08:41:20;43.97;;;13.00;;
4202;SDS011;2115;51.038;7.006;2022-11-20T08:43:53;27.13;;;11.17;;
4202;SDS011;2115;51.038;7.006;2022-11-20T08:46:19;47.67;;;13.80;;
4202;SDS011;2115;51.038;7.006;2022-11-20T08:48:45;26.70;;;10.57;;
4202;SDS011;2115;51.038;7.006;2022-11-20T08:51:11;39.73;;;12.80;;
4202;SDS011;2115;51.038;7.006;2022-11-20T08:53:37;24.00;;;9.57;;
4202;SDS011;2115;51.038;7.006;2022-11-20T08:56:03;20.87;;;8.93;;
4202;SDS011;2115;51.038;7.006;2022-11-20T08:58:29;40.10;;;12.50;;
4202;SDS011;2115;51.038;7.006;2022-11-20T09:00:55;23.07;;;10.07;;
4202;SDS011;2115;51.038;7.006;2022-11-20T09:03:20;30.13;;;10.90;;
4202;SDS011;2115;51.038;7.006;2022-11-20T09:05:45;29.53;;;11.47;;
4202;SDS011;2115;51.038;7.006;2022-11-20T09:08:11;36.07;;;11.00;;
4202;SDS011;2115;51.038;7.006;2022-11-20T09:10:36;24.33;;;10.50;;
4202;SDS011;2115;51.038;7.006;2022-11-20T09:13:04;22.33;;;10.73;;
4202;SDS011;2115;51.038;7.006;2022-11-20T09:15:30;30.43;;;11.77;;
4202;SDS011;2115;51.038;7.006;2022-11-20T09:17:56;23.47;;;11.20;;
4202;SDS011;2115;51.038;7.006;2022-11-20T09:20:23;32.93;;;11.87;;
4202;SDS011;2115;51.038;7.006;2022-11-20T09:22:48;24.13;;;10.60;;
4202;SDS011;2115;51.038;7.006;2022-11-20T09:25:14;21.50;;;9.80;;
4202;SDS011;2115;51.038;7.006;2022-11-20T09:27:39;25.67;;;10.67;;
4202;SDS011;2115;51.038;7.006;2022-11-20T09:30:09;22.07;;;11.03;;
4202;SDS011;2115;51.038;7.006;2022-11-20T09:32:35;39.57;;;13.60;;
4202;SDS011;2115;51.038;7.006;2022-11-20T09:35:01;43.77;;;13.47;;
4202;SDS011;2115;51.038;7.006;2022-11-20T09:37:27;29.80;;;11.60;;
4202;SDS011;2115;51.038;7.006;2022-11-20T09:39:52;25.93;;;11.50;;
4202;SDS011;2115;51.038;7.006;2022-11-20T09:55:09;26.07;;;9.90;;
4202;SDS011;2115;51.038;7.006;2022-11-20T09:57:36;39.93;;;10.73;;
4202;SDS011;2115;51.038;7.006;2022-11-20T10:00:05;25.43;;;9.47;;
4202;SDS011;2115;51.038;7.006;2022-11-20T10:02:59;24.63;;;9.03;;
4202;SDS011;2115;51.038;7.006;2022-11-20T10:05:32;22.63;;;8.60;;
4202;SDS011;2115;51.038;7.006;2022-11-20T10:10:47;23.30;;;9.43;;
4202;SDS011;2115;51.038;7.006;2022-11-20T10:29:36;21.53;;;9.03;;
4202;SDS011;2115;51.038;7.006;2022-11-20T10:32:04;26.43;;;10.50;;
4202;SDS011;2115;51.038;7.006;2022-11-20T10:37:15;19.53;;;9.63;;
4202;SDS011;2115;51.038;7.006;2022-11-20T10:39:44;25.00;;;9.77;;
4202;SDS011;2115;51.038;7.006;2022-11-20T10:42:29;29.27;;;11.93;;
4202;SDS011;2115;51.038;7.006;2022-11-20T10:45:22;26.77;;;10.53;;
4202;SDS011;2115;51.038;7.006;2022-11-20T10:50:32;31.47;;;11.30;;
4202;SDS011;2115;51.038;7.006;2022-11-20T10:53:02;44.57;;;13.83;;
4202;SDS011;2115;51.038;7.006;2022-11-20T10:55:45;27.90;;;10.40;;
4202;SDS011;2115;51.038;7.006;2022-11-20T10:58:13;30.13;;;12.03;;
4202;SDS011;2115;51.038;7.006;2022-11-20T11:00:44;35.23;;;15.90;;
4202;SDS011;2115;51.038;7.006;2022-11-20T11:08:32;27.50;;;15.70;;
4202;SDS011;2115;51.038;7.006;2022-11-20T11:11:01;45.53;;;16.37;;
4202;SDS011;2115;51.038;7.006;2022-11-20T11:13:32;31.50;;;16.13;;
4202;SDS011;2115;51.038;7.006;2022-11-20T11:15:58;62.10;;;19.80;;
4202;SDS011;2115;51.038;7.006;2022-11-20T11:20:59;61.37;;;20.73;;
4202;SDS011;2115;51.038;7.006;2022-11-20T11:23:36;36.53;;;18.60;;
4202;SDS011;2115;51.038;7.006;2022-11-20T11:26:05;50.70;;;18.40;;
4202;SDS011;2115;51.038;7.006;2022-11-20T11:28:31;44.83;;;17.00;;
4202;SDS011;2115;51.038;7.006;2022-11-20T11:30:57;36.53;;;16.20;;
4202;SDS011;2115;51.038;7.006;2022-11-20T11:33:26;33.23;;;15.60;;
4202;SDS011;2115;51.038;7.006;2022-11-20T11:35:55;28.57;;;14.67;;
4202;SDS011;2115;51.038;7.006;2022-11-20T11:41:00;44.20;;;16.67;;
4202;SDS011;2115;51.038;7.006;2022-11-20T11:43:26;29.93;;;14.20;;
4202;SDS011;2115;51.038;7.006;2022-11-20T11:46:27;58.53;;;17.70;;
4202;SDS011;2115;51.038;7.006;2022-11-20T11:54:19;41.53;;;16.03;;
4202;SDS011;2115;51.038;7.006;2022-11-20T11:56:48;37.07;;;15.73;;
4202;SDS011;2115;51.038;7.006;2022-11-20T11:59:15;50.10;;;19.57;;
4202;SDS011;2115;51.038;7.006;2022-11-20T12:01:49;57.80;;;19.10;;
4202;SDS011;2115;51.038;7.006;2022-11-20T12:07:00;27.33;;;13.93;;
4202;SDS011;2115;51.038;7.006;2022-11-20T12:09:41;46.83;;;18.83;;
4202;SDS011;2115;51.038;7.006;2022-11-20T12:12:10;32.70;;;17.80;;
4202;SDS011;2115;51.038;7.006;2022-11-20T12:14:41;32.37;;;17.73;;
4202;SDS011;2115;51.038;7.006;2022-11-20T12:17:09;28.67;;;15.67;;
4202;SDS011;2115;51.038;7.006;2022-11-20T12:19:36;39.30;;;17.10;;
4202;SDS011;2115;51.038;7.006;2022-11-20T12:28:03;35.30;;;19.50;;
4202;SDS011;2115;51.038;7.006;2022-11-20T12:30:53;37.40;;;16.50;;
4202;SDS011;2115;51.038;7.006;2022-11-20T12:33:31;50.43;;;21.43;;
4202;SDS011;2115;51.038;7.006;2022-11-20T12:36:22;42.10;;;20.40;;
4202;SDS011;2115;51.038;7.006;2022-11-20T12:38:58;58.90;;;23.30;;
4202;SDS011;2115;51.038;7.006;2022-11-20T12:56:19;38.03;;;20.30;;
4202;SDS011;2115;51.038;7.006;2022-11-20T12:58:57;40.13;;;22.20;;
4202;SDS011;2115;51.038;7.006;2022-11-20T13:01:40;53.77;;;24.03;;
4202;SDS011;2115;51.038;7.006;2022-11-20T13:06:41;86.17;;;29.10;;
4202;SDS011;2115;51.038;7.006;2022-11-20T13:09:09;47.10;;;23.57;;
4202;SDS011;2115;51.038;7.006;2022-11-20T13:11:43;74.33;;;33.10;;
4202;SDS011;2115;51.038;7.006;2022-11-20T13:14:23;48.47;;;30.13;;
4202;SDS011;2115;51.038;7.006;2022-11-20T13:17:33;47.60;;;30.27;;
4202;SDS011;2115;51.038;7.006;2022-11-20T13:20:05;54.60;;;35.40;;
4202;SDS011;2115;51.038;7.006;2022-11-20T13:22:45;40.37;;;27.50;;
4202;SDS011;2115;51.038;7.006;2022-11-20T13:25:34;41.10;;;23.67;;
4202;SDS011;2115;51.038;7.006;2022-11-20T13:28:01;55.13;;;27.07;;
4202;SDS011;2115;51.038;7.006;2022-11-20T13:30:29;43.30;;;24.73;;
4202;SDS011;2115;51.038;7.006;2022-11-20T13:33:04;61.37;;;29.07;;
4202;SDS011;2115;51.038;7.006;2022-11-20T13:35:34;48.10;;;28.70;;
4202;SDS011;2115;51.038;7.006;2022-11-20T13:40:29;61.40;;;38.37;;
4202;SDS011;2115;51.038;7.006;2022-11-20T13:43:07;79.33;;;37.80;;
4202;SDS011;2115;51.038;7.006;2022-11-20T13:45:36;71.23;;;36.70;;
4202;SDS011;2115;51.038;7.006;2022-11-20T13:48:03;71.47;;;32.90;;
4202;SDS011;2115;51.038;7.006;2022-11-20T13:53:05;73.80;;;36.43;;
4202;SDS011;2115;51.038;7.006;2022-11-20T14:01:25;48.03;;;32.43;;
4202;SDS011;2115;51.038;7.006;2022-11-20T14:03:53;74.50;;;38.37;;
4202;SDS011;2115;51.038;7.006;2022-11-20T14:06:29;69.00;;;35.03;;
4202;SDS011;2115;51.038;7.006;2022-11-20T14:08:56;73.10;;;39.10;;
4202;SDS011;2115;51.038;7.006;2022-11-20T14:11:23;60.27;;;31.27;;
4202;SDS011;2115;51.038;7.006;2022-11-20T14:16:28;61.87;;;34.10;;
4202;SDS011;2115;51.038;7.006;2022-11-20T14:19:14;84.20;;;38.20;;
4202;SDS011;2115;51.038;7.006;2022-11-20T14:21:46;70.40;;;34.87;;
4202;SDS011;2115;51.038;7.006;2022-11-20T14:24:31;70.77;;;38.97;;
4202;SDS011;2115;51.038;7.006;2022-11-20T14:26:56;87.23;;;37.27;;
4202;SDS011;2115;51.038;7.006;2022-11-20T14:29:23;71.57;;;38.63;;
4202;SDS011;2115;51.038;7.006;2022-11-20T14:31:52;60.83;;;35.03;;
4202;SDS011;2115;51.038;7.006;2022-11-20T14:34:23;67.77;;;35.40;;
4202;SDS011;2115;51.038;7.006;2022-11-20T14:36:56;72.20;;;36.57;;
4202;SDS011;2115;51.038;7.006;2022-11-20T14:39:25;72.97;;;38.30;;
4202;SDS011;2115;51.038;7.006;2022-11-20T14:41:57;60.77;;;32.90;;
4202;SDS011;2115;51.038;7.006;2022-11-20T14:44:25;95.93;;;43.30;;
4202;SDS011;2115;51.038;7.006;2022-11-20T14:46:52;64.40;;;38.63;;
4202;SDS011;2115;51.038;7.006;2022-11-20T14:49:17;81.17;;;40.70;;
4202;SDS011;2115;51.038;7.006;2022-11-20T14:51:43;59.17;;;35.23;;
4202;SDS011;2115;51.038;7.006;2022-11-20T14:56:39;61.37;;;38.90;;
4202;SDS011;2115;51.038;7.006;2022-11-20T14:59:04;66.93;;;43.57;;
4202;SDS011;2115;51.038;7.006;2022-11-20T15:01:31;84.77;;;41.03;;
4202;SDS011;2115;51.038;7.006;2022-11-20T15:06:26;55.43;;;28.63;;
4202;SDS011;2115;51.038;7.006;2022-11-20T15:08:52;36.87;;;25.90;;
4202;SDS011;2115;51.038;7.006;2022-11-20T15:11:18;46.00;;;29.13;;
4202;SDS011;2115;51.038;7.006;2022-11-20T15:13:45;50.40;;;33.73;;
4202;SDS011;2115;51.038;7.006;2022-11-20T15:16:18;79.23;;;31.03;;
4202;SDS011;2115;51.038;7.006;2022-11-20T15:18:44;37.77;;;23.20;;
4202;SDS011;2115;51.038;7.006;2022-11-20T15:21:10;38.37;;;24.80;;
4202;SDS011;2115;51.038;7.006;2022-11-20T15:23:37;77.07;;;34.33;;
4202;SDS011;2115;51.038;7.006;2022-11-20T15:26:06;51.73;;;33.20;;
4202;SDS011;2115;51.038;7.006;2022-11-20T15:28:35;86.27;;;41.23;;
4202;SDS011;2115;51.038;7.006;2022-11-20T15:31:04;48.27;;;31.27;;
4202;SDS011;2115;51.038;7.006;2022-11-20T15:33:30;62.07;;;39.30;;
4202;SDS011;2115;51.038;7.006;2022-11-20T15:35:58;51.20;;;33.70;;
4202;SDS011;2115;51.038;7.006;2022-11-20T15:38:24;46.27;;;31.30;;
4202;SDS011;2115;51.038;7.006;2022-11-20T15:40:49;67.47;;;35.03;;
4202;SDS011;2115;51.038;7.006;2022-11-20T15:43:15;42.17;;;24.10;;
4202;SDS011;2115;51.038;7.006;2022-11-20T15:45:44;86.07;;;37.93;;
4202;SDS011;2115;51.038;7.006;2022-11-20T15:48:12;54.90;;;32.57;;
4202;SDS011;2115;51.038;7.006;2022-11-20T15:50:59;72.80;;;38.00;;
4202;SDS011;2115;51.038;7.006;2022-11-20T15:53:29;59.33;;;34.47;;
4202;SDS011;2115;51.038;7.006;2022-11-20T15:55:54;86.10;;;39.67;;
4202;SDS011;2115;51.038;7.006;2022-11-20T15:58:20;71.97;;;38.47;;
4202;SDS011;2115;51.038;7.006;2022-11-20T16:00:45;99.37;;;45.50;;
4202;SDS011;2115;51.038;7.006;2022-11-20T16:03:11;106.80;;;43.73;;
4202;SDS011;2115;51.038;7.006;2022-11-20T16:05:37;75.00;;;39.73;;
4202;SDS011;2115;51.038;7.006;2022-11-20T16:08:03;72.33;;;38.77;;
4202;SDS011;2115;51.038;7.006;2022-11-20T16:10:28;70.30;;;39.63;;
4202;SDS011;2115;51.038;7.006;2022-11-20T16:12:54;148.50;;;57.37;;
4202;SDS011;2115;51.038;7.006;2022-11-20T16:15:38;93.50;;;47.90;;
4202;SDS011;2115;51.038;7.006;2022-11-20T16:18:16;79.73;;;45.60;;
4202;SDS011;2115;51.038;7.006;2022-11-20T16:20:44;90.70;;;48.67;;
4202;SDS011;2115;51.038;7.006;2022-11-20T16:23:10;86.03;;;46.97;;
4202;SDS011;2115;51.038;7.006;2022-11-20T16:25:36;134.40;;;57.37;;
4202;SDS011;2115;51.038;7.006;2022-11-20T16:28:01;116.83;;;50.57;;
4202;SDS011;2115;51.038;7.006;2022-11-20T16:30:27;115.23;;;50.20;;
4202;SDS011;2115;51.038;7.006;2022-11-20T16:32:52;117.70;;;52.50;;
4202;SDS011;2115;51.038;7.006;2022-11-20T16:35:18;107.90;;;52.27;;
4202;SDS011;2115;51.038;7.006;2022-11-20T16:37:43;140.23;;;60.40;;
4202;SDS011;2115;51.038;7.006;2022-11-20T16:40:09;109.87;;;54.40;;